Cisne Branco — PWCB — position and weather

sailwx.info

Track history (hours):
 
Tides and Currents Weather Stations Pressure Air Temp Water Temp Dewpoint Dewpoint Depression Visibility Wind Speed Wind Dir Waves Ship Positions

Cisne Branco (Brazil)

Last reported at 2018-Jan-31 11:02 UTC. Time now 2018-Feb-22 15:05 UTC.
Position S 22°52' W 043°08'.
Warning: this ship's position is 22 days out of date.

Length 78 m; draft 4.7 m.

Type: Sailing vessel. MMSI: 710428000.

Date/timePositionNaut miles runAvg speedWind from/ knotsBaromVisibWave heightAir tempDewpointWater temp
2018-Jan-31 11:02S 22°52' W 043°08'0 0.0
2018-Jan-31 11:01S 22°52' W 043°08'0 0.2
2018-Jan-31 10:30S 22°52' W 043°08'1 1.9
2018-Jan-31 10:01S 22°52' W 043°09'3 5.9
2018-Jan-31 09:31S 22°55' W 043°09'3 5.5
2018-Jan-31 09:01S 22°58' W 043°07'6 4.6
2018-Jan-31 07:43S 23°01' W 043°02'1 3.1
2018-Jan-31 07:15S 23°01' W 043°01'1 5.9
2018-Jan-31 07:00S 23°02' W 043°02'3 1.5
2018-Jan-31 04:59S 23°05' W 043°00'3 5.9
2018-Jan-31 04:30S 23°05' W 043°03'3 5.7
2018-Jan-31 04:00S 23°05' W 043°06'4 6.3
2018-Jan-31 03:26S 23°07' W 043°10'3 6.4
2018-Jan-31 02:57S 23°08' W 043°13'179 5.1
2018-Jan-29 15:29S 24°01' W 046°20'3 5.3
2018-Jan-29 14:55S 23°59' W 046°17'2 3.7
2018-Jan-29 14:30S 23°58' W 046°18'  
2018-Jan-25 12:17S 23°58' W 046°18'0 0.0
2018-Jan-25 11:59S 23°58' W 046°18'0 0.0
2018-Jan-25 11:26S 23°58' W 046°18'1 1.7
2018-Jan-25 11:00S 23°58' W 046°18'3 1.4
2018-Jan-25 08:50S 23°60' W 046°20'0 0.0
2018-Jan-25 05:20S 23°60' W 046°20'0 0.0
2018-Jan-25 04:32S 23°60' W 046°20'0 0.0
2018-Jan-25 04:26S 23°60' W 046°20'0 0.0
2018-Jan-25 03:56S 23°60' W 046°20'0 0.0
2018-Jan-25 03:20S 23°60' W 046°20'0 0.0
2018-Jan-25 02:50S 23°60' W 046°20'  
Track history (hours):
 
Tides and Currents Weather Stations Pressure Air Temp Water Temp Dewpoint Dewpoint Depression Visibility Wind Speed Wind Dir Waves Ship Positions

Cisne Branco (Brazil)

Last reported at 2018-Jan-31 11:02 UTC. Time now 2018-Feb-22 15:05 UTC.
Position S 22°52' W 043°08'.
Warning: this ship's position is 22 days out of date.

Length 78 m; draft 4.7 m.

Type: Sailing vessel. MMSI: 710428000.

Date/timePositionNaut miles runAvg speedWind from/ knotsBaromVisibWave heightAir tempDewpointWater temp
2018-Jan-31 11:02S 22°52' W 043°08'0 0.0
2018-Jan-31 11:01S 22°52' W 043°08'0 0.2
2018-Jan-31 10:30S 22°52' W 043°08'1 1.9
2018-Jan-31 10:01S 22°52' W 043°09'3 5.9
2018-Jan-31 09:31S 22°55' W 043°09'3 5.5
2018-Jan-31 09:01S 22°58' W 043°07'6 4.6
2018-Jan-31 07:43S 23°01' W 043°02'1 3.1
2018-Jan-31 07:15S 23°01' W 043°01'1 5.9
2018-Jan-31 07:00S 23°02' W 043°02'3 1.5
2018-Jan-31 04:59S 23°05' W 043°00'3 5.9
2018-Jan-31 04:30S 23°05' W 043°03'3 5.7
2018-Jan-31 04:00S 23°05' W 043°06'4 6.3
2018-Jan-31 03:26S 23°07' W 043°10'3 6.4
2018-Jan-31 02:57S 23°08' W 043°13'179 5.1
2018-Jan-29 15:29S 24°01' W 046°20'3 5.3
2018-Jan-29 14:55S 23°59' W 046°17'2 3.7
2018-Jan-29 14:30S 23°58' W 046°18'  
2018-Jan-25 12:17S 23°58' W 046°18'0 0.0
2018-Jan-25 11:59S 23°58' W 046°18'0 0.0
2018-Jan-25 11:26S 23°58' W 046°18'1 1.7
2018-Jan-25 11:00S 23°58' W 046°18'3 1.4
2018-Jan-25 08:50S 23°60' W 046°20'0 0.0
2018-Jan-25 05:20S 23°60' W 046°20'0 0.0
2018-Jan-25 04:32S 23°60' W 046°20'0 0.0
2018-Jan-25 04:26S 23°60' W 046°20'0 0.0
2018-Jan-25 03:56S 23°60' W 046°20'0 0.0
2018-Jan-25 03:20S 23°60' W 046°20'0 0.0
2018-Jan-25 02:50S 23°60' W 046°20'  

Dump ship's entire track history